Terminal Aerodrome Forecast
Issued by NWS Sioux Falls, SD

Home | Current Version | Previous Version | Graphics & Text | Print | Product List | Glossary Off
Versions: 1 2 3 4 5 6 7 8 9 10 11 12 13

000
FTUS43 KFSD 312320
TAFFSD
TAF
KFSD 312320Z 0100/0124 20006KT P6SM FEW250
     FM010600 17012KT P6SM SCT250 WS010/19040KT
     FM011000 18015G24KT P6SM BKN250
     FM011500 19024G31KT P6SM SCT150
     FM011700 22020G30KT P6SM SCT030 BKN100=

USA.gov is the U.S. government's official web portal to all federal, state and local government web resources and services.